sensor_id;sensor_type;location;lat;lon;timestamp;P1;durP1;ratioP1;P2;durP2;ratioP2
21166;SDS011;10741;52.272;9.580;2023-01-08T00:02:22;3.13;;;2.83;;
21166;SDS011;10741;52.272;9.580;2023-01-08T00:04:48;3.30;;;2.93;;
21166;SDS011;10741;52.272;9.580;2023-01-08T00:07:13;5.00;;;3.03;;
21166;SDS011;10741;52.272;9.580;2023-01-08T00:09:39;3.57;;;3.17;;
21166;SDS011;10741;52.272;9.580;2023-01-08T00:12:05;4.60;;;3.30;;
21166;SDS011;10741;52.272;9.580;2023-01-08T00:14:31;3.70;;;3.17;;
21166;SDS011;10741;52.272;9.580;2023-01-08T00:16:56;4.20;;;3.17;;
21166;SDS011;10741;52.272;9.580;2023-01-08T00:19:22;3.80;;;3.20;;
21166;SDS011;10741;52.272;9.580;2023-01-08T00:21:48;4.53;;;3.20;;
21166;SDS011;10741;52.272;9.580;2023-01-08T00:24:14;3.57;;;3.23;;
21166;SDS011;10741;52.272;9.580;2023-01-08T00:26:40;3.80;;;3.20;;
21166;SDS011;10741;52.272;9.580;2023-01-08T00:29:05;4.90;;;3.27;;
21166;SDS011;10741;52.272;9.580;2023-01-08T00:31:31;4.10;;;3.30;;
21166;SDS011;10741;52.272;9.580;2023-01-08T00:33:57;3.33;;;2.90;;
21166;SDS011;10741;52.272;9.580;2023-01-08T00:36:23;3.40;;;3.10;;
21166;SDS011;10741;52.272;9.580;2023-01-08T00:38:48;3.30;;;3.00;;
21166;SDS011;10741;52.272;9.580;2023-01-08T00:41:14;4.10;;;2.90;;
21166;SDS011;10741;52.272;9.580;2023-01-08T00:43:40;4.70;;;3.50;;
21166;SDS011;10741;52.272;9.580;2023-01-08T00:46:06;3.57;;;3.23;;
21166;SDS011;10741;52.272;9.580;2023-01-08T00:48:33;3.63;;;3.33;;
21166;SDS011;10741;52.272;9.580;2023-01-08T00:51:02;4.90;;;3.03;;
21166;SDS011;10741;52.272;9.580;2023-01-08T00:53:29;3.97;;;2.93;;
21166;SDS011;10741;52.272;9.580;2023-01-08T00:55:58;5.67;;;2.90;;
21166;SDS011;10741;52.272;9.580;2023-01-08T00:58:24;5.07;;;3.30;;
21166;SDS011;10741;52.272;9.580;2023-01-08T01:00:50;3.40;;;2.90;;
21166;SDS011;10741;52.272;9.580;2023-01-08T01:03:16;4.47;;;3.27;;
21166;SDS011;10741;52.272;9.580;2023-01-08T01:05:42;4.50;;;3.00;;
21166;SDS011;10741;52.272;9.580;2023-01-08T01:08:07;3.43;;;3.00;;
21166;SDS011;10741;52.272;9.580;2023-01-08T01:10:33;3.83;;;3.30;;
21166;SDS011;10741;52.272;9.580;2023-01-08T01:12:59;4.27;;;3.30;;
21166;SDS011;10741;52.272;9.580;2023-01-08T01:15:24;3.60;;;3.10;;
21166;SDS011;10741;52.272;9.580;2023-01-08T01:17:50;3.70;;;3.17;;
21166;SDS011;10741;52.272;9.580;2023-01-08T01:20:16;5.30;;;3.73;;
21166;SDS011;10741;52.272;9.580;2023-01-08T01:22:42;4.07;;;3.40;;
21166;SDS011;10741;52.272;9.580;2023-01-08T01:25:08;4.93;;;3.47;;
21166;SDS011;10741;52.272;9.580;2023-01-08T01:27:34;3.93;;;3.47;;
21166;SDS011;10741;52.272;9.580;2023-01-08T01:30:00;4.40;;;3.77;;
21166;SDS011;10741;52.272;9.580;2023-01-08T01:32:26;3.97;;;3.53;;
21166;SDS011;10741;52.272;9.580;2023-01-08T01:34:52;4.77;;;3.70;;
21166;SDS011;10741;52.272;9.580;2023-01-08T01:37:17;4.63;;;4.23;;
21166;SDS011;10741;52.272;9.580;2023-01-08T01:39:43;4.43;;;3.60;;
21166;SDS011;10741;52.272;9.580;2023-01-08T01:42:14;5.03;;;4.07;;
21166;SDS011;10741;52.272;9.580;2023-01-08T01:44:59;3.50;;;3.20;;
21166;SDS011;10741;52.272;9.580;2023-01-08T01:50:10;7.43;;;3.73;;
21166;SDS011;10741;52.272;9.580;2023-01-08T01:52:44;4.43;;;3.53;;
21166;SDS011;10741;52.272;9.580;2023-01-08T01:55:14;4.97;;;3.87;;
21166;SDS011;10741;52.272;9.580;2023-01-08T01:57:42;5.47;;;3.90;;
21166;SDS011;10741;52.272;9.580;2023-01-08T02:00:12;3.83;;;3.40;;
21166;SDS011;10741;52.272;9.580;2023-01-08T02:02:38;4.63;;;3.40;;
21166;SDS011;10741;52.272;9.580;2023-01-08T02:05:04;4.20;;;3.50;;
21166;SDS011;10741;52.272;9.580;2023-01-08T02:07:50;7.00;;;4.40;;
21166;SDS011;10741;52.272;9.580;2023-01-08T02:13:16;3.90;;;3.50;;
21166;SDS011;10741;52.272;9.580;2023-01-08T02:18:43;6.67;;;3.87;;
21166;SDS011;10741;52.272;9.580;2023-01-08T02:21:17;4.13;;;3.50;;
21166;SDS011;10741;52.272;9.580;2023-01-08T02:24:00;5.70;;;3.63;;
21166;SDS011;10741;52.272;9.580;2023-01-08T02:26:34;4.27;;;3.60;;
21166;SDS011;10741;52.272;9.580;2023-01-08T02:29:05;4.80;;;3.90;;
21166;SDS011;10741;52.272;9.580;2023-01-08T02:31:34;4.13;;;3.73;;
21166;SDS011;10741;52.272;9.580;2023-01-08T02:34:03;4.10;;;3.70;;
21166;SDS011;10741;52.272;9.580;2023-01-08T02:36:37;5.00;;;3.57;;
21166;SDS011;10741;52.272;9.580;2023-01-08T02:42:31;4.10;;;3.70;;
21166;SDS011;10741;52.272;9.580;2023-01-08T02:45:20;4.43;;;3.47;;
21166;SDS011;10741;52.272;9.580;2023-01-08T02:48:05;4.00;;;3.17;;
21166;SDS011;10741;52.272;9.580;2023-01-08T02:50:55;3.30;;;3.00;;
21166;SDS011;10741;52.272;9.580;2023-01-08T02:53:53;4.67;;;3.30;;
21166;SDS011;10741;52.272;9.580;2023-01-08T02:56:26;3.70;;;3.30;;
21166;SDS011;10741;52.272;9.580;2023-01-08T02:58:55;3.63;;;3.33;;
21166;SDS011;10741;52.272;9.580;2023-01-08T03:01:22;5.20;;;3.40;;
21166;SDS011;10741;52.272;9.580;2023-01-08T03:03:49;4.57;;;3.70;;
21166;SDS011;10741;52.272;9.580;2023-01-08T03:06:20;4.67;;;3.40;;
21166;SDS011;10741;52.272;9.580;2023-01-08T03:08:47;3.60;;;3.10;;
21166;SDS011;10741;52.272;9.580;2023-01-08T03:11:19;4.73;;;3.47;;
21166;SDS011;10741;52.272;9.580;2023-01-08T03:16:30;3.50;;;3.20;;
21166;SDS011;10741;52.272;9.580;2023-01-08T03:19:11;3.90;;;3.50;;
21166;SDS011;10741;52.272;9.580;2023-01-08T03:21:44;4.83;;;3.60;;
21166;SDS011;10741;52.272;9.580;2023-01-08T03:24:13;3.40;;;3.10;;
21166;SDS011;10741;52.272;9.580;2023-01-08T03:26:41;4.87;;;3.60;;
21166;SDS011;10741;52.272;9.580;2023-01-08T03:29:12;5.40;;;3.60;;
21166;SDS011;10741;52.272;9.580;2023-01-08T03:31:39;4.63;;;3.47;;
21166;SDS011;10741;52.272;9.580;2023-01-08T03:34:06;3.70;;;3.40;;
21166;SDS011;10741;52.272;9.580;2023-01-08T03:36:33;3.87;;;3.30;;
21166;SDS011;10741;52.272;9.580;2023-01-08T03:39:07;6.60;;;3.80;;
21166;SDS011;10741;52.272;9.580;2023-01-08T03:41:40;6.33;;;3.70;;
21166;SDS011;10741;52.272;9.580;2023-01-08T03:44:06;4.33;;;3.73;;
21166;SDS011;10741;52.272;9.580;2023-01-08T03:46:32;5.37;;;3.60;;
21166;SDS011;10741;52.272;9.580;2023-01-08T03:49:04;4.63;;;3.67;;
21166;SDS011;10741;52.272;9.580;2023-01-08T03:51:39;5.80;;;3.80;;
21166;SDS011;10741;52.272;9.580;2023-01-08T03:54:05;3.73;;;3.43;;
21166;SDS011;10741;52.272;9.580;2023-01-08T03:56:37;4.97;;;3.43;;
21166;SDS011;10741;52.272;9.580;2023-01-08T03:59:02;3.90;;;3.50;;
21166;SDS011;10741;52.272;9.580;2023-01-08T04:01:28;4.17;;;3.70;;
21166;SDS011;10741;52.272;9.580;2023-01-08T04:03:54;5.53;;;4.10;;
21166;SDS011;10741;52.272;9.580;2023-01-08T04:06:20;4.23;;;3.83;;
21166;SDS011;10741;52.272;9.580;2023-01-08T04:08:46;5.33;;;3.63;;
21166;SDS011;10741;52.272;9.580;2023-01-08T04:11:12;4.03;;;3.57;;
21166;SDS011;10741;52.272;9.580;2023-01-08T04:13:40;4.43;;;3.40;;
21166;SDS011;10741;52.272;9.580;2023-01-08T04:16:05;5.63;;;3.77;;
21166;SDS011;10741;52.272;9.580;2023-01-08T04:18:32;6.40;;;3.53;;
21166;SDS011;10741;52.272;9.580;2023-01-08T04:20:58;3.77;;;3.37;;
21166;SDS011;10741;52.272;9.580;2023-01-08T04:23:24;6.00;;;3.23;;
21166;SDS011;10741;52.272;9.580;2023-01-08T04:25:50;4.67;;;3.37;;
21166;SDS011;10741;52.272;9.580;2023-01-08T04:28:16;5.40;;;3.90;;
21166;SDS011;10741;52.272;9.580;2023-01-08T04:30:42;6.87;;;3.63;;
21166;SDS011;10741;52.272;9.580;2023-01-08T04:33:08;4.13;;;3.57;;
21166;SDS011;10741;52.272;9.580;2023-01-08T04:35:34;5.00;;;3.50;;
21166;SDS011;10741;52.272;9.580;2023-01-08T04:38:00;4.80;;;3.30;;
21166;SDS011;10741;52.272;9.580;2023-01-08T04:40:26;3.53;;;3.23;;
21166;SDS011;10741;52.272;9.580;2023-01-08T04:42:52;4.17;;;3.20;;
21166;SDS011;10741;52.272;9.580;2023-01-08T04:45:18;4.10;;;3.70;;
21166;SDS011;10741;52.272;9.580;2023-01-08T04:47:43;4.53;;;3.70;;
21166;SDS011;10741;52.272;9.580;2023-01-08T04:50:09;5.70;;;3.60;;
21166;SDS011;10741;52.272;9.580;2023-01-08T04:52:35;4.73;;;3.73;;
21166;SDS011;10741;52.272;9.580;2023-01-08T04:55:01;6.30;;;3.77;;
21166;SDS011;10741;52.272;9.580;2023-01-08T04:57:26;4.23;;;3.50;;
21166;SDS011;10741;52.272;9.580;2023-01-08T04:59:52;5.30;;;3.90;;
21166;SDS011;10741;52.272;9.580;2023-01-08T05:02:18;4.03;;;3.60;;
21166;SDS011;10741;52.272;9.580;2023-01-08T05:04:43;4.27;;;3.50;;
21166;SDS011;10741;52.272;9.580;2023-01-08T05:07:09;4.17;;;3.77;;
21166;SDS011;10741;52.272;9.580;2023-01-08T05:09:35;4.17;;;3.60;;
21166;SDS011;10741;52.272;9.580;2023-01-08T05:12:01;5.57;;;3.73;;
21166;SDS011;10741;52.272;9.580;2023-01-08T05:14:27;4.27;;;3.80;;
21166;SDS011;10741;52.272;9.580;2023-01-08T05:16:52;5.30;;;3.80;;
21166;SDS011;10741;52.272;9.580;2023-01-08T05:19:18;4.03;;;3.57;;
21166;SDS011;10741;52.272;9.580;2023-01-08T05:21:44;6.40;;;3.93;;
21166;SDS011;10741;52.272;9.580;2023-01-08T05:24:10;7.03;;;4.10;;
21166;SDS011;10741;52.272;9.580;2023-01-08T05:26:35;7.17;;;4.40;;
21166;SDS011;10741;52.272;9.580;2023-01-08T05:29:01;5.43;;;4.50;;
21166;SDS011;10741;52.272;9.580;2023-01-08T05:31:28;6.43;;;4.20;;
21166;SDS011;10741;52.272;9.580;2023-01-08T05:33:56;5.17;;;4.00;;
21166;SDS011;10741;52.272;9.580;2023-01-08T05:36:22;5.57;;;4.10;;
21166;SDS011;10741;52.272;9.580;2023-01-08T05:38:48;5.60;;;4.20;;
21166;SDS011;10741;52.272;9.580;2023-01-08T05:41:14;5.80;;;4.83;;
21166;SDS011;10741;52.272;9.580;2023-01-08T05:43:40;5.37;;;4.33;;
21166;SDS011;10741;52.272;9.580;2023-01-08T05:46:05;6.80;;;4.03;;
21166;SDS011;10741;52.272;9.580;2023-01-08T05:48:32;6.80;;;4.37;;
21166;SDS011;10741;52.272;9.580;2023-01-08T05:50:59;5.37;;;4.33;;
21166;SDS011;10741;52.272;9.580;2023-01-08T05:53:25;6.00;;;4.63;;
21166;SDS011;10741;52.272;9.580;2023-01-08T05:55:51;8.10;;;4.77;;
21166;SDS011;10741;52.272;9.580;2023-01-08T05:58:16;5.67;;;4.67;;
21166;SDS011;10741;52.272;9.580;2023-01-08T06:00:45;7.10;;;4.90;;
21166;SDS011;10741;52.272;9.580;2023-01-08T06:03:11;6.87;;;4.77;;
21166;SDS011;10741;52.272;9.580;2023-01-08T06:05:36;5.93;;;4.90;;
21166;SDS011;10741;52.272;9.580;2023-01-08T06:08:02;8.30;;;5.23;;
21166;SDS011;10741;52.272;9.580;2023-01-08T06:10:28;6.20;;;4.90;;
21166;SDS011;10741;52.272;9.580;2023-01-08T06:12:54;5.20;;;4.43;;
21166;SDS011;10741;52.272;9.580;2023-01-08T06:15:20;5.70;;;5.00;;
21166;SDS011;10741;52.272;9.580;2023-01-08T06:17:46;6.40;;;4.70;;
21166;SDS011;10741;52.272;9.580;2023-01-08T06:20:11;7.13;;;5.03;;
21166;SDS011;10741;52.272;9.580;2023-01-08T06:22:37;6.90;;;5.07;;
21166;SDS011;10741;52.272;9.580;2023-01-08T06:25:03;5.47;;;4.60;;
21166;SDS011;10741;52.272;9.580;2023-01-08T06:27:29;7.13;;;5.37;;
21166;SDS011;10741;52.272;9.580;2023-01-08T06:29:55;7.90;;;5.87;;
21166;SDS011;10741;52.272;9.580;2023-01-08T06:32:21;6.30;;;5.13;;
21166;SDS011;10741;52.272;9.580;2023-01-08T06:34:46;5.80;;;5.00;;
21166;SDS011;10741;52.272;9.580;2023-01-08T06:37:12;5.80;;;4.37;;
21166;SDS011;10741;52.272;9.580;2023-01-08T06:39:38;7.97;;;4.97;;
21166;SDS011;10741;52.272;9.580;2023-01-08T06:42:03;7.20;;;5.60;;
21166;SDS011;10741;52.272;9.580;2023-01-08T06:44:29;7.43;;;5.00;;
21166;SDS011;10741;52.272;9.580;2023-01-08T06:46:55;6.37;;;5.20;;
21166;SDS011;10741;52.272;9.580;2023-01-08T06:49:21;6.47;;;4.70;;
21166;SDS011;10741;52.272;9.580;2023-01-08T06:51:47;8.47;;;5.53;;
21166;SDS011;10741;52.272;9.580;2023-01-08T06:54:12;8.27;;;5.50;;
21166;SDS011;10741;52.272;9.580;2023-01-08T06:56:38;7.50;;;5.40;;
21166;SDS011;10741;52.272;9.580;2023-01-08T06:59:04;8.57;;;6.30;;
21166;SDS011;10741;52.272;9.580;2023-01-08T07:01:30;6.37;;;5.33;;
21166;SDS011;10741;52.272;9.580;2023-01-08T07:03:55;7.97;;;5.87;;
21166;SDS011;10741;52.272;9.580;2023-01-08T07:06:21;6.97;;;5.83;;
21166;SDS011;10741;52.272;9.580;2023-01-08T07:08:48;8.77;;;5.30;;
21166;SDS011;10741;52.272;9.580;2023-01-08T07:11:14;8.20;;;6.27;;
21166;SDS011;10741;52.272;9.580;2023-01-08T07:13:41;8.90;;;6.10;;
21166;SDS011;10741;52.272;9.580;2023-01-08T07:16:08;7.83;;;6.00;;
21166;SDS011;10741;52.272;9.580;2023-01-08T07:18:36;7.97;;;5.93;;
21166;SDS011;10741;52.272;9.580;2023-01-08T07:21:02;6.20;;;5.60;;
21166;SDS011;10741;52.272;9.580;2023-01-08T07:23:29;7.43;;;5.87;;
21166;SDS011;10741;52.272;9.580;2023-01-08T07:25:58;8.53;;;6.77;;
21166;SDS011;10741;52.272;9.580;2023-01-08T07:28:25;7.90;;;6.30;;
21166;SDS011;10741;52.272;9.580;2023-01-08T07:30:51;9.20;;;6.33;;
21166;SDS011;10741;52.272;9.580;2023-01-08T07:33:17;10.27;;;8.13;;
21166;SDS011;10741;52.272;9.580;2023-01-08T07:35:43;10.23;;;7.27;;
21166;SDS011;10741;52.272;9.580;2023-01-08T07:38:15;9.43;;;6.13;;
21166;SDS011;10741;52.272;9.580;2023-01-08T07:40:40;9.13;;;7.37;;
21166;SDS011;10741;52.272;9.580;2023-01-08T07:43:07;9.73;;;7.43;;
21166;SDS011;10741;52.272;9.580;2023-01-08T07:45:36;10.33;;;7.37;;
21166;SDS011;10741;52.272;9.580;2023-01-08T07:48:02;9.07;;;7.10;;
21166;SDS011;10741;52.272;9.580;2023-01-08T07:50:28;10.57;;;7.40;;
21166;SDS011;10741;52.272;9.580;2023-01-08T07:52:58;11.30;;;7.73;;
21166;SDS011;10741;52.272;9.580;2023-01-08T07:55:25;9.13;;;7.10;;
21166;SDS011;10741;52.272;9.580;2023-01-08T07:57:51;9.20;;;7.47;;
21166;SDS011;10741;52.272;9.580;2023-01-08T08:00:17;9.23;;;7.33;;
21166;SDS011;10741;52.272;9.580;2023-01-08T08:02:43;11.10;;;7.80;;
21166;SDS011;10741;52.272;9.580;2023-01-08T08:05:09;13.00;;;7.97;;
21166;SDS011;10741;52.272;9.580;2023-01-08T08:07:35;8.53;;;7.20;;
21166;SDS011;10741;52.272;9.580;2023-01-08T08:10:01;9.73;;;7.57;;
21166;SDS011;10741;52.272;9.580;2023-01-08T08:12:28;10.47;;;7.60;;
21166;SDS011;10741;52.272;9.580;2023-01-08T08:14:54;9.47;;;7.40;;
21166;SDS011;10741;52.272;9.580;2023-01-08T08:17:19;9.50;;;7.63;;
21166;SDS011;10741;52.272;9.580;2023-01-08T08:19:45;8.60;;;7.07;;
21166;SDS011;10741;52.272;9.580;2023-01-08T08:22:11;8.70;;;7.03;;
21166;SDS011;10741;52.272;9.580;2023-01-08T08:24:37;8.53;;;6.30;;
21166;SDS011;10741;52.272;9.580;2023-01-08T08:27:03;9.20;;;6.20;;
21166;SDS011;10741;52.272;9.580;2023-01-08T08:29:29;7.00;;;6.03;;
21166;SDS011;10741;52.272;9.580;2023-01-08T08:31:54;9.27;;;5.97;;
21166;SDS011;10741;52.272;9.580;2023-01-08T08:34:20;6.97;;;5.70;;
21166;SDS011;10741;52.272;9.580;2023-01-08T08:36:47;6.30;;;5.40;;
21166;SDS011;10741;52.272;9.580;2023-01-08T08:39:13;10.80;;;5.63;;
21166;SDS011;10741;52.272;9.580;2023-01-08T08:41:39;5.60;;;5.10;;
21166;SDS011;10741;52.272;9.580;2023-01-08T08:44:06;4.60;;;4.10;;
21166;SDS011;10741;52.272;9.580;2023-01-08T08:46:32;5.07;;;4.43;;
21166;SDS011;10741;52.272;9.580;2023-01-08T08:48:59;5.53;;;4.97;;
21166;SDS011;10741;52.272;9.580;2023-01-08T08:51:24;5.37;;;4.77;;
21166;SDS011;10741;52.272;9.580;2023-01-08T08:53:50;5.60;;;4.67;;
21166;SDS011;10741;52.272;9.580;2023-01-08T08:56:16;5.17;;;4.67;;
21166;SDS011;10741;52.272;9.580;2023-01-08T08:58:42;5.53;;;4.93;;
21166;SDS011;10741;52.272;9.580;2023-01-08T09:01:09;5.27;;;4.70;;
21166;SDS011;10741;52.272;9.580;2023-01-08T09:03:35;5.07;;;4.40;;
21166;SDS011;10741;52.272;9.580;2023-01-08T09:06:01;4.73;;;4.27;;
21166;SDS011;10741;52.272;9.580;2023-01-08T09:08:27;4.20;;;3.80;;
21166;SDS011;10741;52.272;9.580;2023-01-08T09:10:53;4.20;;;3.80;;
21166;SDS011;10741;52.272;9.580;2023-01-08T09:13:18;4.30;;;3.90;;
21166;SDS011;10741;52.272;9.580;2023-01-08T09:15:44;4.00;;;3.60;;
21166;SDS011;10741;52.272;9.580;2023-01-08T09:18:10;4.23;;;3.33;;
21166;SDS011;10741;52.272;9.580;2023-01-08T09:20:36;3.70;;;3.27;;
21166;SDS011;10741;52.272;9.580;2023-01-08T09:23:01;3.33;;;3.00;;
21166;SDS011;10741;52.272;9.580;2023-01-08T09:25:28;4.70;;;3.23;;
21166;SDS011;10741;52.272;9.580;2023-01-08T09:27:58;5.03;;;3.90;;
21166;SDS011;10741;52.272;9.580;2023-01-08T09:30:24;4.37;;;3.63;;
21166;SDS011;10741;52.272;9.580;2023-01-08T09:32:50;4.80;;;3.57;;
21166;SDS011;10741;52.272;9.580;2023-01-08T09:35:19;3.60;;;2.80;;
21166;SDS011;10741;52.272;9.580;2023-01-08T09:37:48;3.50;;;3.20;;
21166;SDS011;10741;52.272;9.580;2023-01-08T09:40:15;3.57;;;3.17;;
21166;SDS011;10741;52.272;9.580;2023-01-08T09:42:41;3.63;;;3.23;;
21166;SDS011;10741;52.272;9.580;2023-01-08T09:45:11;3.50;;;3.20;;
21166;SDS011;10741;52.272;9.580;2023-01-08T09:47:48;3.50;;;3.20;;
21166;SDS011;10741;52.272;9.580;2023-01-08T09:50:14;3.33;;;2.90;;
21166;SDS011;10741;52.272;9.580;2023-01-08T09:52:39;2.97;;;2.70;;
21166;SDS011;10741;52.272;9.580;2023-01-08T09:55:14;3.10;;;2.80;;
21166;SDS011;10741;52.272;9.580;2023-01-08T09:57:41;3.20;;;2.80;;
21166;SDS011;10741;52.272;9.580;2023-01-08T10:00:15;3.03;;;2.73;;
21166;SDS011;10741;52.272;9.580;2023-01-08T10:02:45;2.70;;;2.50;;
21166;SDS011;10741;52.272;9.580;2023-01-08T10:05:15;2.87;;;2.57;;
21166;SDS011;10741;52.272;9.580;2023-01-08T10:07:42;3.60;;;2.90;;
21166;SDS011;10741;52.272;9.580;2023-01-08T10:10:19;3.37;;;2.67;;
21166;SDS011;10741;52.272;9.580;2023-01-08T10:12:51;4.33;;;2.20;;
21166;SDS011;10741;52.272;9.580;2023-01-08T10:15:19;2.40;;;2.20;;
21166;SDS011;10741;52.272;9.580;2023-01-08T10:17:48;2.60;;;2.40;;
21166;SDS011;10741;52.272;9.580;2023-01-08T10:20:29;5.17;;;2.47;;
21166;SDS011;10741;52.272;9.580;2023-01-08T10:22:56;2.43;;;2.23;;
21166;SDS011;10741;52.272;9.580;2023-01-08T10:25:56;2.83;;;2.27;;
21166;SDS011;10741;52.272;9.580;2023-01-08T10:28:25;1.93;;;1.83;;
21166;SDS011;10741;52.272;9.580;2023-01-08T10:30:51;2.07;;;1.87;;
21166;SDS011;10741;52.272;9.580;2023-01-08T10:33:38;3.93;;;1.90;;
21166;SDS011;10741;52.272;9.580;2023-01-08T10:36:07;2.27;;;2.07;;
21166;SDS011;10741;52.272;9.580;2023-01-08T10:38:53;1.87;;;1.70;;
21166;SDS011;10741;52.272;9.580;2023-01-08T10:41:21;3.43;;;2.03;;
21166;SDS011;10741;52.272;9.580;2023-01-08T10:46:23;7.70;;;4.70;;
21166;SDS011;10741;52.272;9.580;2023-01-08T10:49:01;2.07;;;1.60;;
21166;SDS011;10741;52.272;9.580;2023-01-08T10:51:29;3.13;;;1.70;;
21166;SDS011;10741;52.272;9.580;2023-01-08T10:54:11;2.20;;;2.00;;
21166;SDS011;10741;52.272;9.580;2023-01-08T10:56:40;2.97;;;1.90;;
21166;SDS011;10741;52.272;9.580;2023-01-08T10:59:17;2.30;;;1.80;;
21166;SDS011;10741;52.272;9.580;2023-01-08T11:01:47;1.77;;;1.67;;
21166;SDS011;10741;52.272;9.580;2023-01-08T11:04:16;2.00;;;1.80;;
21166;SDS011;10741;52.272;9.580;2023-01-08T11:06:47;1.77;;;1.67;;
21166;SDS011;10741;52.272;9.580;2023-01-08T11:09:17;2.80;;;1.40;;
21166;SDS011;10741;52.272;9.580;2023-01-08T11:11:49;1.70;;;1.60;;
21166;SDS011;10741;52.272;9.580;2023-01-08T11:16:53;1.67;;;1.47;;
21166;SDS011;10741;52.272;9.580;2023-01-08T11:19:26;2.77;;;1.50;;
21166;SDS011;10741;52.272;9.580;2023-01-08T11:22:01;1.57;;;1.20;;
21166;SDS011;10741;52.272;9.580;2023-01-08T11:24:41;2.17;;;1.40;;
21166;SDS011;10741;52.272;9.580;2023-01-08T11:27:11;1.40;;;1.20;;
21166;SDS011;10741;52.272;9.580;2023-01-08T11:37:45;2.70;;;1.70;;
21166;SDS011;10741;52.272;9.580;2023-01-08T11:49:25;2.20;;;1.10;;
21166;SDS011;10741;52.272;9.580;2023-01-08T11:54:47;1.70;;;1.00;;
21166;SDS011;10741;52.272;9.580;2023-01-08T12:00:28;1.70;;;1.00;;
21166;SDS011;10741;52.272;9.580;2023-01-08T12:02:57;2.23;;;1.00;;
21166;SDS011;10741;52.272;9.580;2023-01-08T12:22:35;1.70;;;1.10;;
21166;SDS011;10741;52.272;9.580;2023-01-08T12:28:13;1.97;;;1.40;;
21166;SDS011;10741;52.272;9.580;2023-01-08T12:34:40;4.20;;;1.33;;
21166;SDS011;10741;52.272;9.580;2023-01-08T12:36:38;2.07;;;1.13;;
21166;SDS011;10741;52.272;9.580;2023-01-08T12:39:16;3.27;;;0.90;;
21166;SDS011;10741;52.272;9.580;2023-01-08T12:41:52;3.40;;;0.93;;
21166;SDS011;10741;52.272;9.580;2023-01-08T12:44:27;3.53;;;1.37;;
21166;SDS011;10741;52.272;9.580;2023-01-08T12:46:56;4.53;;;1.00;;
21166;SDS011;10741;52.272;9.580;2023-01-08T12:49:28;2.80;;;1.13;;
21166;SDS011;10741;52.272;9.580;2023-01-08T12:52:15;4.67;;;1.20;;
21166;SDS011;10741;52.272;9.580;2023-01-08T12:54:58;2.87;;;1.03;;
21166;SDS011;10741;52.272;9.580;2023-01-08T12:57:56;4.83;;;1.17;;
21166;SDS011;10741;52.272;9.580;2023-01-08T13:00:38;3.90;;;1.20;;
21166;SDS011;10741;52.272;9.580;2023-01-08T13:03:23;4.60;;;1.10;;
21166;SDS011;10741;52.272;9.580;2023-01-08T13:05:51;4.30;;;1.20;;
21166;SDS011;10741;52.272;9.580;2023-01-08T13:08:29;3.80;;;1.10;;
21166;SDS011;10741;52.272;9.580;2023-01-08T13:10:58;5.20;;;1.10;;
21166;SDS011;10741;52.272;9.580;2023-01-08T13:16:05;3.80;;;1.00;;
21166;SDS011;10741;52.272;9.580;2023-01-08T13:18:38;5.53;;;1.10;;
21166;SDS011;10741;52.272;9.580;2023-01-08T13:21:05;2.77;;;0.90;;
21166;SDS011;10741;52.272;9.580;2023-01-08T13:23:42;3.67;;;0.93;;
21166;SDS011;10741;52.272;9.580;2023-01-08T13:26:08;3.57;;;1.23;;
21166;SDS011;10741;52.272;9.580;2023-01-08T13:31:07;6.70;;;1.33;;
21166;SDS011;10741;52.272;9.580;2023-01-08T13:33:49;3.50;;;1.40;;
21166;SDS011;10741;52.272;9.580;2023-01-08T13:36:19;3.80;;;1.13;;
21166;SDS011;10741;52.272;9.580;2023-01-08T13:39:03;2.73;;;1.00;;
21166;SDS011;10741;52.272;9.580;2023-01-08T13:41:56;3.13;;;0.97;;
21166;SDS011;10741;52.272;9.580;2023-01-08T13:44:28;3.37;;;1.10;;
21166;SDS011;10741;52.272;9.580;2023-01-08T13:47:00;3.57;;;0.90;;
21166;SDS011;10741;52.272;9.580;2023-01-08T13:49:50;4.47;;;0.90;;
21166;SDS011;10741;52.272;9.580;2023-01-08T13:55:04;2.37;;;0.77;;
21166;SDS011;10741;52.272;9.580;2023-01-08T13:57:38;2.23;;;0.67;;
21166;SDS011;10741;52.272;9.580;2023-01-08T14:00:08;2.43;;;0.97;;
21166;SDS011;10741;52.272;9.580;2023-01-08T14:02:42;2.20;;;0.70;;
21166;SDS011;10741;52.272;9.580;2023-01-08T14:05:32;1.97;;;0.90;;
21166;SDS011;10741;52.272;9.580;2023-01-08T14:07:58;2.50;;;0.90;;
21166;SDS011;10741;52.272;9.580;2023-01-08T14:10:25;1.67;;;0.90;;
21166;SDS011;10741;52.272;9.580;2023-01-08T14:13:05;1.60;;;1.03;;
21166;SDS011;10741;52.272;9.580;2023-01-08T14:15:33;1.43;;;0.87;;
21166;SDS011;10741;52.272;9.580;2023-01-08T14:18:00;1.43;;;0.70;;
21166;SDS011;10741;52.272;9.580;2023-01-08T14:20:37;2.00;;;0.80;;
21166;SDS011;10741;52.272;9.580;2023-01-08T14:23:12;1.03;;;0.80;;
21166;SDS011;10741;52.272;9.580;2023-01-08T14:25:48;2.70;;;1.00;;
21166;SDS011;10741;52.272;9.580;2023-01-08T14:28:16;1.07;;;0.80;;
21166;SDS011;10741;52.272;9.580;2023-01-08T14:30:48;1.83;;;1.00;;
21166;SDS011;10741;52.272;9.580;2023-01-08T14:33:15;3.17;;;1.00;;
21166;SDS011;10741;52.272;9.580;2023-01-08T14:35:43;0.97;;;0.80;;
21166;SDS011;10741;52.272;9.580;2023-01-08T14:38:10;1.00;;;0.80;;
21166;SDS011;10741;52.272;9.580;2023-01-08T14:40:39;1.43;;;0.70;;
21166;SDS011;10741;52.272;9.580;2023-01-08T14:43:10;1.67;;;0.97;;
21166;SDS011;10741;52.272;9.580;2023-01-08T14:45:39;2.00;;;1.00;;
21166;SDS011;10741;52.272;9.580;2023-01-08T14:48:15;2.30;;;1.17;;
21166;SDS011;10741;52.272;9.580;2023-01-08T14:51:06;1.83;;;0.90;;
21166;SDS011;10741;52.272;9.580;2023-01-08T14:53:43;1.50;;;1.03;;
21166;SDS011;10741;52.272;9.580;2023-01-08T14:56:16;2.33;;;0.80;;
21166;SDS011;10741;52.272;9.580;2023-01-08T14:58:46;1.10;;;0.90;;
21166;SDS011;10741;52.272;9.580;2023-01-08T15:03:40;1.90;;;1.30;;
21166;SDS011;10741;52.272;9.580;2023-01-08T15:06:08;3.67;;;1.10;;
21166;SDS011;10741;52.272;9.580;2023-01-08T15:13:42;2.33;;;0.87;;
21166;SDS011;10741;52.272;9.580;2023-01-08T15:19:05;0.97;;;0.70;;
21166;SDS011;10741;52.272;9.580;2023-01-08T15:21:35;1.00;;;0.90;;
21166;SDS011;10741;52.272;9.580;2023-01-08T15:24:02;1.53;;;1.00;;
21166;SDS011;10741;52.272;9.580;2023-01-08T15:26:30;2.07;;;0.90;;
21166;SDS011;10741;52.272;9.580;2023-01-08T15:34:07;1.70;;;0.90;;
21166;SDS011;10741;52.272;9.580;2023-01-08T15:36:34;1.27;;;0.80;;
21166;SDS011;10741;52.272;9.580;2023-01-08T15:38:59;0.83;;;0.83;;
21166;SDS011;10741;52.272;9.580;2023-01-08T15:41:32;1.40;;;0.70;;
21166;SDS011;10741;52.272;9.580;2023-01-08T15:44:20;0.87;;;0.77;;
21166;SDS011;10741;52.272;9.580;2023-01-08T15:46:46;0.80;;;0.70;;
21166;SDS011;10741;52.272;9.580;2023-01-08T15:49:12;1.77;;;0.80;;
21166;SDS011;10741;52.272;9.580;2023-01-08T15:51:40;1.00;;;0.80;;
21166;SDS011;10741;52.272;9.580;2023-01-08T15:54:11;0.70;;;0.70;;
21166;SDS011;10741;52.272;9.580;2023-01-08T15:56:37;1.43;;;0.70;;
21166;SDS011;10741;52.272;9.580;2023-01-08T15:59:04;0.90;;;0.80;;
21166;SDS011;10741;52.272;9.580;2023-01-08T16:01:29;2.87;;;1.00;;
21166;SDS011;10741;52.272;9.580;2023-01-08T16:03:57;0.90;;;0.70;;
21166;SDS011;10741;52.272;9.580;2023-01-08T16:06:23;0.83;;;0.60;;
21166;SDS011;10741;52.272;9.580;2023-01-08T16:08:49;1.37;;;0.97;;
21166;SDS011;10741;52.272;9.580;2023-01-08T16:11:15;1.10;;;1.00;;
21166;SDS011;10741;52.272;9.580;2023-01-08T16:13:41;1.47;;;1.27;;
21166;SDS011;10741;52.272;9.580;2023-01-08T16:16:08;1.57;;;1.00;;
21166;SDS011;10741;52.272;9.580;2023-01-08T16:18:38;1.43;;;1.30;;
21166;SDS011;10741;52.272;9.580;2023-01-08T16:21:04;1.63;;;1.43;;
21166;SDS011;10741;52.272;9.580;2023-01-08T16:23:34;6.87;;;3.20;;
21166;SDS011;10741;52.272;9.580;2023-01-08T16:26:06;2.10;;;1.37;;
21166;SDS011;10741;52.272;9.580;2023-01-08T16:28:34;2.40;;;1.30;;
21166;SDS011;10741;52.272;9.580;2023-01-08T16:31:00;1.47;;;1.20;;